EDHI/XFW METAR and TAF weather

Enter ICAO airport designator
Station Type Date Time Source
EDHI METAR 2019/06/16 07:50 UTC NOAA

EDHI 160750Z AUTO 23005KT 170V280 9999 // BKN240/// 18/12 Q1019


Station Type Date Time Source
EDHI Decoded METAR 2019/06/16 07:50 UTC NOAA

Hamburg-Finkenwerder, Germany (EDHI) 53-32N 009-50E 13M
Jun 16, 2019 - 03:50 AM EDT / 2019.06.16 0750 UTC
Wind: from the SW (230 degrees) at 6 MPH (5 KT) (direction variable):0
Visibility: greater than 7 mile(s):0
Sky conditions: mostly cloudy
Temperature: 64 F (18 C)
Dew Point: 53 F (12 C)
Relative Humidity: 67%
Pressure (altimeter): 30.09 in. Hg (1019 hPa)
ob: EDHI 160750Z AUTO 23005KT 170V280 9999 // BKN240/// 18/12 Q1019
cycle: 8

Station Type Date Time Source
EDHI TAF 2010/02/22 14:20 UTC NOAA

METAR EDHI 221420Z 17005KT 9999 BKN030 05/02 Q0989

Example: see airport list